Time;durP1;ratioP1;P1;durP2;ratioP2;P2;SDS_P1;SDS_P2;PMS_P1;PMS_P2;Temp;Humidity;BMP_temperature;BMP_pressure;BME280_temperature;BME280_humidity;BME280_pressure;Samples;Min_cycle;Max_cycle;Signal;HPM_P1;HPM_P2
2023/07/13 00:01:58;;;;;;;16.15;9.98;;;26.10;99.90;;;;;;4974562;28;20537;-81
2023/07/13 00:04:25;;;;;;;15.57;8.35;;;26.00;99.90;;;;;;4973298;28;20062;-81
2023/07/13 00:06:51;;;;;;;18.40;9.85;;;26.10;99.90;;;;;;4974211;28;20034;-80
2023/07/13 00:09:18;;;;;;;18.70;9.43;;;26.00;99.90;;;;;;4974755;28;20038;-81
2023/07/13 00:11:47;;;;;;;17.27;10.40;;;25.90;99.90;;;;;;4973529;28;20384;-82
2023/07/13 00:14:15;;;;;;;21.83;13.48;;;25.80;99.90;;;;;;4973561;28;20166;-81
2023/07/13 00:16:44;;;;;;;17.02;10.75;;;25.80;99.90;;;;;;4974333;28;20023;-82
2023/07/13 00:19:13;;;;;;;15.73;8.90;;;25.90;99.90;;;;;;4973517;28;20113;-82
2023/07/13 00:21:40;;;;;;;17.00;10.23;;;25.70;99.90;;;;;;4973786;28;20135;-82
2023/07/13 00:24:08;;;;;;;21.10;9.70;;;25.70;99.90;;;;;;4974452;28;20039;-81
2023/07/13 00:26:34;;;;;;;15.85;9.32;;;25.70;99.90;;;;;;4974463;28;20094;-82
2023/07/13 00:29:00;;;;;;;21.65;9.80;;;25.50;99.90;;;;;;4970565;28;20038;-79
2023/07/13 00:31:28;;;;;;;14.90;8.40;;;;;;;;;;4956454;28;20027;-80
2023/07/13 00:33:54;;;;;;;16.35;8.75;;;25.40;99.90;;;;;;4973697;28;20397;-81
2023/07/13 00:36:20;;;;;;;16.67;9.23;;;25.20;99.90;;;;;;4973542;28;20042;-80
2023/07/13 00:38:46;;;;;;;15.80;9.55;;;25.20;99.90;;;;;;4973264;28;20052;-81
2023/07/13 00:41:12;;;;;;;15.00;9.35;;;25.10;99.90;;;;;;4955787;28;20027;-81
2023/07/13 00:43:38;;;;;;;18.15;8.93;;;;;;;;;;4974308;28;20034;-80
2023/07/13 00:46:16;;;;;;;20.98;8.35;;;25.10;99.90;;;;;;4973592;28;20023;-80
2023/07/13 00:48:45;;;;;;;15.40;9.27;;;25.20;99.90;;;;;;4952758;28;20118;-81
2023/07/13 00:51:11;;;;;;;15.70;8.85;;;25.20;99.90;;;;;;4973903;28;20436;-81
2023/07/13 00:53:37;;;;;;;16.85;8.82;;;25.10;99.90;;;;;;4956357;28;20043;-82
2023/07/13 00:56:03;;;;;;;17.27;9.15;;;25.20;99.90;;;;;;4973858;28;20041;-80
2023/07/13 00:58:29;;;;;;;14.27;8.80;;;25.20;99.90;;;;;;4975348;28;20080;-79
2023/07/13 01:00:57;;;;;;;14.13;8.40;;;25.20;99.90;;;;;;4972217;28;20109;-80
2023/07/13 01:03:23;;;;;;;14.50;8.85;;;25.10;99.90;;;;;;4972082;28;20122;-79
2023/07/13 01:05:49;;;;;;;20.60;8.15;;;25.10;99.90;;;;;;4973633;28;20054;-80
2023/07/13 01:08:16;;;;;;;17.23;8.25;;;25.10;99.90;;;;;;4973226;28;20047;-80
2023/07/13 01:10:51;;;;;;;14.73;8.85;;;25.00;99.90;;;;;;4972338;28;20408;-80
2023/07/13 01:13:18;;;;;;;17.13;9.20;;;25.00;99.90;;;;;;4955586;28;20027;-80
2023/07/13 01:15:46;;;;;;;14.35;8.95;;;24.90;99.90;;;;;;4972619;28;20503;-79
2023/07/13 01:18:24;;;;;;;15.40;9.15;;;24.90;99.90;;;;;;4955991;28;20358;-80
2023/07/13 01:20:56;;;;;;;13.65;8.57;;;24.80;99.90;;;;;;4970983;28;20507;-80
2023/07/13 01:23:24;;;;;;;17.35;9.52;;;;;;;;;;4972154;28;20081;-80
2023/07/13 01:25:50;;;;;;;15.73;8.55;;;24.90;99.90;;;;;;4973540;28;20473;-79
2023/07/13 01:28:16;;;;;;;18.38;9.32;;;24.90;99.90;;;;;;4973453;28;20491;-79
2023/07/13 01:30:45;;;;;;;17.10;8.68;;;24.90;99.90;;;;;;4972131;28;20031;-80
2023/07/13 01:33:16;;;;;;;15.25;8.45;;;24.90;99.90;;;;;;4972186;28;20117;-80
2023/07/13 01:35:44;;;;;;;14.48;9.15;;;24.90;99.90;;;;;;4952471;28;20035;-79
2023/07/13 01:38:10;;;;;;;13.98;8.45;;;24.90;99.90;;;;;;4971809;28;20027;-79
2023/07/13 01:40:37;;;;;;;17.10;9.45;;;24.90;99.90;;;;;;4955954;28;20476;-79
2023/07/13 01:43:04;;;;;;;16.45;9.13;;;25.00;99.90;;;;;;4973434;28;20480;-76
2023/07/13 01:45:31;;;;;;;18.33;8.82;;;24.90;99.90;;;;;;4973536;28;20511;-79
2023/07/13 01:47:57;;;;;;;17.20;9.43;;;24.90;99.90;;;;;;4973221;28;20019;-80
2023/07/13 01:50:24;;;;;;;13.35;8.68;;;24.90;99.90;;;;;;4971338;28;20039;-81
2023/07/13 01:52:51;;;;;;;15.70;9.05;;;24.80;99.90;;;;;;4955370;28;20019;-80
2023/07/13 01:55:17;;;;;;;13.50;8.63;;;24.80;99.90;;;;;;4955794;28;20030;-78
2023/07/13 01:57:43;;;;;;;14.82;9.40;;;24.60;99.90;;;;;;4955382;28;20042;-79
2023/07/13 02:00:10;;;;;;;20.63;10.55;;;24.50;99.90;;;;;;4973075;28;20121;-81
2023/07/13 02:02:43;;;;;;;15.90;9.23;;;24.50;99.90;;;;;;4973467;28;20019;-78
2023/07/13 02:05:11;;;;;;;18.63;9.15;;;24.50;99.90;;;;;;4955470;28;20035;-78
2023/07/13 02:07:37;;;;;;;15.00;8.60;;;24.50;99.90;;;;;;4972039;28;20043;-81
2023/07/13 02:10:04;;;;;;;14.18;8.93;;;24.50;99.90;;;;;;4971244;28;20043;-80
2023/07/13 02:12:30;;;;;;;17.13;9.65;;;24.50;99.90;;;;;;4971685;28;20023;-81
2023/07/13 02:14:55;;;;;;;15.27;8.63;;;24.30;99.90;;;;;;4968392;28;20033;-81
2023/07/13 02:17:21;;;;;;;13.90;7.93;;;24.50;99.90;;;;;;4972304;28;20388;-81
2023/07/13 02:19:47;;;;;;;21.92;8.82;;;24.60;99.90;;;;;;4971688;28;20039;-80
2023/07/13 02:22:13;;;;;;;16.60;8.63;;;24.50;99.90;;;;;;4956031;28;20443;-81
2023/07/13 02:24:39;;;;;;;20.30;9.55;;;;;;;;;;4972922;28;20035;-81
2023/07/13 02:27:05;;;;;;;19.05;9.13;;;24.20;99.90;;;;;;4972421;28;20027;-80
2023/07/13 02:29:31;;;;;;;18.27;8.63;;;24.30;99.90;;;;;;4955886;28;20042;-80
2023/07/13 02:31:56;;;;;;;18.92;9.15;;;24.30;99.90;;;;;;4980198;28;20028;-80
2023/07/13 02:34:23;;;;;;;16.92;9.45;;;24.30;99.90;;;;;;4981121;28;20528;-80
2023/07/13 02:36:49;;;;;;;13.60;9.23;;;24.30;99.90;;;;;;4974675;28;20172;-79
2023/07/13 02:39:15;;;;;;;20.65;9.55;;;24.40;99.90;;;;;;4975058;28;20075;-79
2023/07/13 02:41:41;;;;;;;16.92;10.48;;;24.30;99.90;;;;;;4976230;28;20129;-79
2023/07/13 02:44:08;;;;;;;19.63;11.18;;;24.00;99.90;;;;;;4975188;28;20027;-79
2023/07/13 02:46:36;;;;;;;17.75;9.23;;;24.10;99.90;;;;;;4958894;28;20026;-80
2023/07/13 02:49:02;;;;;;;15.68;10.45;;;24.10;99.90;;;;;;4974719;28;20029;-80
2023/07/13 02:51:28;;;;;;;19.60;10.35;;;24.00;99.90;;;;;;4975401;28;20027;-79
2023/07/13 02:53:54;;;;;;;19.38;11.27;;;24.00;99.90;;;;;;4974228;28;20476;-80
2023/07/13 02:56:26;;;;;;;16.20;11.05;;;24.00;99.90;;;;;;4974491;28;20587;-81
2023/07/13 02:58:52;;;;;;;;;;;23.90;99.90;;;;;;4975029;28;20053;-79
2023/07/13 03:01:18;;;;;;;17.70;10.73;;;23.90;99.90;;;;;;4974646;28;20367;-81
2023/07/13 03:03:48;;;;;;;17.75;10.25;;;;;;;;;;4977603;28;20019;-81
2023/07/13 03:06:16;;;;;;;19.25;10.30;;;23.90;99.90;;;;;;4957874;28;20053;-81
2023/07/13 03:08:48;;;;;;;17.35;9.75;;;23.90;99.90;;;;;;4973851;28;20051;-80
2023/07/13 03:11:18;;;;;;;18.27;9.98;;;23.90;99.90;;;;;;4974376;28;20026;-80
2023/07/13 03:13:48;;;;;;;19.10;10.05;;;23.90;99.90;;;;;;4959707;28;20041;-78
2023/07/13 03:16:16;;;;;;;18.13;10.38;;;23.90;99.90;;;;;;4985905;28;20047;-81
2023/07/13 03:18:45;;;;;;;17.98;10.32;;;24.00;99.90;;;;;;4973085;28;20085;-80
2023/07/13 03:21:12;;;;;;;19.90;9.95;;;24.00;99.90;;;;;;4958546;28;20492;-80
2023/07/13 03:23:39;;;;;;;18.08;10.10;;;24.00;99.90;;;;;;4957912;28;20034;-80
2023/07/13 03:26:17;;;;;;;15.85;9.68;;;24.00;99.90;;;;;;4958962;28;20077;-79
2023/07/13 03:28:43;;;;;;;18.10;10.40;;;23.90;99.90;;;;;;4975519;28;20033;-80
2023/07/13 03:31:17;;;;;;;15.40;10.75;;;23.90;99.90;;;;;;4981918;28;20023;-80
2023/07/13 03:33:43;;;;;;;20.98;10.00;;;23.90;99.90;;;;;;4958448;28;20031;-80
2023/07/13 03:36:20;;;;;;;18.73;10.43;;;24.00;99.90;;;;;;4959205;28;20078;-78
2023/07/13 03:38:48;;;;;;;21.25;10.77;;;24.10;99.90;;;;;;4968982;28;20476;-79
2023/07/13 03:41:17;;;;;;;76.32;16.38;;;24.20;99.90;;;;;;4973330;28;20015;-76
2023/07/13 03:43:44;;;;;;;28.70;11.50;;;24.30;99.90;;;;;;4977749;28;20030;-79
2023/07/13 03:46:11;;;;;;;23.05;11.50;;;24.40;99.90;;;;;;4992858;28;20483;-80
2023/07/13 03:48:37;;;;;;;14.77;9.40;;;24.50;99.90;;;;;;4994146;28;20054;-79
2023/07/13 03:51:02;;;;;;;17.73;8.70;;;24.60;99.90;;;;;;4994981;28;20053;-79
2023/07/13 03:53:29;;;;;;;20.95;10.73;;;24.90;99.90;;;;;;4969878;28;20030;-79
2023/07/13 03:55:55;;;;;;;18.70;10.02;;;25.10;99.90;;;;;;4977893;28;20035;-75
2023/07/13 03:58:29;;;;;;;20.88;10.05;;;25.50;99.90;;;;;;4974328;28;20488;-75
2023/07/13 04:01:00;;;;;;;19.27;9.45;;;25.80;99.90;;;;;;4974177;28;20046;-79
2023/07/13 04:03:28;;;;;;;18.50;9.40;;;26.10;99.90;;;;;;4971311;28;20023;-78
2023/07/13 04:05:59;;;;;;;17.10;9.80;;;26.30;99.90;;;;;;4972871;28;20035;-80
2023/07/13 04:08:30;;;;;;;18.92;8.30;;;26.70;99.90;;;;;;4973776;28;20047;-80
2023/07/13 04:10:56;;;;;;;15.40;8.93;;;27.10;99.90;;;;;;4974833;28;20170;-78
2023/07/13 04:13:23;;;;;;;20.08;8.85;;;27.10;99.90;;;;;;4975306;28;20089;-79
2023/07/13 04:15:49;;;;;;;29.08;10.27;;;27.20;99.90;;;;;;4973870;28;20118;-76
2023/07/13 04:18:15;;;;;;;17.58;8.40;;;27.20;99.90;;;;;;4975150;28;20108;-80
2023/07/13 04:20:40;;;;;;;22.38;9.13;;;27.70;99.90;;;;;;4975180;28;20480;-77
2023/07/13 04:23:06;;;;;;;19.60;7.93;;;28.10;99.90;;;;;;4968927;28;20026;-80
2023/07/13 04:25:32;;;;;;;21.58;9.15;;;28.60;99.90;;;;;;4958003;28;20042;-81
2023/07/13 04:27:58;;;;;;;19.88;7.70;;;29.00;99.90;;;;;;4941784;28;20035;-82
2023/07/13 04:30:24;;;;;;;18.23;8.25;;;29.40;99.90;;;;;;4975098;28;20117;-82
2023/07/13 04:32:53;;;;;;;16.00;9.48;;;29.70;99.90;;;;;;4974765;28;20042;-81
2023/07/13 04:35:23;;;;;;;16.30;8.75;;;30.00;99.90;;;;;;4975068;28;20494;-81
2023/07/13 04:37:50;;;;;;;19.33;8.23;;;30.20;99.90;;;;;;4974950;28;20404;-82
2023/07/13 04:40:19;;;;;;;15.60;8.40;;;30.60;99.90;;;;;;4974818;28;20033;-82
2023/07/13 04:42:46;;;;;;;21.52;9.52;;;30.80;99.90;;;;;;4974610;28;20031;-82
2023/07/13 04:45:14;;;;;;;17.65;9.00;;;31.20;99.90;;;;;;4972849;28;20034;-83
2023/07/13 04:47:40;;;;;;;14.48;8.30;;;31.60;99.90;;;;;;4974808;28;20502;-79
2023/07/13 04:50:08;;;;;;;18.60;7.88;;;32.10;99.90;;;;;;4969152;28;20401;-82
2023/07/13 04:52:34;;;;;;;18.13;8.73;;;32.50;98.70;;;;;;4969649;28;20019;-75
2023/07/13 04:55:00;;;;;;;15.48;9.05;;;32.90;98.00;;;;;;4963218;28;20035;-75
2023/07/13 04:57:27;;;;;;;14.35;7.93;;;33.00;97.10;;;;;;4974288;28;20027;-82
2023/07/13 04:59:53;;;;;;;17.65;8.73;;;33.00;97.40;;;;;;4974566;28;20031;-81
2023/07/13 05:02:21;;;;;;;14.13;8.85;;;32.50;96.80;;;;;;4972882;28;20093;-82
2023/07/13 05:04:48;;;;;;;20.20;8.50;;;32.10;97.70;;;;;;4969187;28;20034;-79
2023/07/13 05:07:14;;;;;;;15.13;8.30;;;31.90;98.10;;;;;;4972436;28;20081;-74
2023/07/13 05:09:40;;;;;;;19.63;9.07;;;31.70;98.40;;;;;;4970518;28;20035;-82
2023/07/13 05:12:08;;;;;;;19.02;8.63;;;31.70;98.80;;;;;;4974447;28;20079;-83
2023/07/13 05:14:34;;;;;;;27.55;10.55;;;31.40;99.00;;;;;;4974206;28;20444;-83
2023/07/13 05:17:00;;;;;;;17.73;9.32;;;31.40;99.50;;;;;;4972643;28;20646;-81
2023/07/13 05:19:26;;;;;;;18.17;9.55;;;31.30;99.40;;;;;;4973995;28;20063;-81
2023/07/13 05:21:52;;;;;;;17.42;9.50;;;31.20;99.90;;;;;;4973996;28;20384;-81
2023/07/13 05:24:18;;;;;;;23.45;10.95;;;31.10;99.60;;;;;;4966748;28;20085;-75
2023/07/13 05:26:44;;;;;;;17.58;9.85;;;31.10;99.90;;;;;;4970960;28;20035;-82
2023/07/13 05:29:10;;;;;;;15.63;9.82;;;31.10;99.90;;;;;;4974152;28;20030;-82
2023/07/13 05:31:36;;;;;;;17.50;9.85;;;31.10;99.90;;;;;;4974094;28;20392;-81
2023/07/13 05:34:02;;;;;;;19.58;9.40;;;31.10;99.90;;;;;;4965954;28;20031;-81
2023/07/13 05:36:28;;;;;;;23.05;11.88;;;31.20;99.90;;;;;;4967431;28;20047;-81
2023/07/13 05:38:54;;;;;;;20.90;10.63;;;31.20;99.90;;;;;;4972410;28;20058;-79
2023/07/13 05:41:20;;;;;;;19.92;8.38;;;31.20;99.90;;;;;;4974034;28;20066;-74
2023/07/13 05:43:46;;;;;;;15.27;8.07;;;30.80;99.90;;;;;;4974176;28;20034;-81
2023/07/13 05:46:12;;;;;;;16.77;8.60;;;30.60;99.90;;;;;;4973928;28;20023;-80
2023/07/13 05:48:37;;;;;;;21.35;10.27;;;30.00;99.90;;;;;;4972061;28;20027;-81
2023/07/13 05:51:03;;;;;;;18.80;10.20;;;29.70;99.90;;;;;;4973490;28;20469;-78
2023/07/13 05:53:29;;;;;;;17.35;8.55;;;29.90;99.90;;;;;;4970099;28;20086;-80
2023/07/13 05:55:55;;;;;;;19.27;8.65;;;29.80;99.90;;;;;;4973114;28;20043;-81
2023/07/13 05:58:21;;;;;;;18.33;8.95;;;29.90;99.90;;;;;;4969341;28;20023;-80
2023/07/13 06:00:48;;;;;;;17.58;9.70;;;29.90;99.90;;;;;;4974259;28;20360;-74
2023/07/13 06:03:14;;;;;;;15.57;8.90;;;30.30;99.90;;;;;;4967968;28;20027;-81
2023/07/13 06:05:40;;;;;;;18.02;9.00;;;30.50;99.90;;;;;;4967236;28;20493;-82
2023/07/13 06:08:06;;;;;;;18.77;8.95;;;30.70;98.50;;;;;;4969763;28;20072;-81
2023/07/13 06:10:33;;;;;;;15.60;8.85;;;31.00;98.60;;;;;;4977092;28;20035;-81
2023/07/13 06:12:59;;;;;;;18.55;8.55;;;31.30;98.50;;;;;;4977420;28;20026;-83
2023/07/13 06:15:25;;;;;;;16.00;8.55;;;31.50;96.70;;;;;;4977166;28;20038;-82
2023/07/13 06:17:51;;;;;;;13.93;7.80;;;31.90;97.60;;;;;;4977610;28;20468;-80
2023/07/13 06:20:17;;;;;;;18.05;8.15;;;32.10;97.50;;;;;;4977054;28;20472;-80
2023/07/13 06:22:42;;;;;;;11.45;7.00;;;32.20;96.70;;;;;;4977082;28;20033;-82
2023/07/13 06:25:09;;;;;;;16.67;7.80;;;;;;;;;;4976977;28;20469;-81
2023/07/13 06:27:35;;;;;;;16.08;7.05;;;32.60;97.10;;;;;;4977195;28;20023;-80
2023/07/13 06:30:01;;;;;;;16.40;7.47;;;32.60;96.20;;;;;;4975927;28;20050;-80
2023/07/13 06:32:26;;;;;;;16.55;7.60;;;32.40;95.90;;;;;;4981216;28;20097;-78
2023/07/13 06:34:52;;;;;;;14.55;7.85;;;32.50;97.20;;;;;;4994971;28;20125;-81
2023/07/13 06:37:18;;;;;;;17.88;8.55;;;32.60;97.00;;;;;;4995672;28;20026;-81
2023/07/13 06:39:44;;;;;;;20.50;8.25;;;32.50;97.30;;;;;;4996717;28;20066;-80
2023/07/13 06:42:10;;;;;;;22.75;9.32;;;32.40;97.40;;;;;;4980623;28;20537;-83
2023/07/13 06:44:36;;;;;;;18.77;8.75;;;32.40;97.90;;;;;;4977008;28;20074;-79
2023/07/13 06:47:02;;;;;;;16.92;8.57;;;32.60;97.80;;;;;;4976543;28;20062;-82
2023/07/13 06:49:28;;;;;;;18.38;9.00;;;32.60;97.80;;;;;;4976859;28;20023;-82
2023/07/13 06:51:54;;;;;;;16.60;9.13;;;32.40;97.00;;;;;;4976515;28;20041;-81
2023/07/13 06:54:20;;;;;;;18.42;8.77;;;32.30;97.10;;;;;;4975418;28;20031;-80
2023/07/13 06:56:46;;;;;;;11.90;7.55;;;32.40;97.80;;;;;;4973797;28;20632;-82
2023/07/13 06:59:12;;;;;;;15.15;8.98;;;32.60;97.90;;;;;;4980981;28;20029;-82
2023/07/13 07:01:37;;;;;;;13.77;7.80;;;32.40;98.30;;;;;;4979463;28;20035;-75
2023/07/13 07:04:04;;;;;;;12.48;7.30;;;32.30;97.80;;;;;;4977012;28;20109;-81
2023/07/13 07:06:30;;;;;;;14.90;8.63;;;32.20;96.00;;;;;;4974123;28;20027;-75
2023/07/13 07:08:55;;;;;;;12.35;8.15;;;32.00;97.40;;;;;;4974269;28;20059;-82
2023/07/13 07:11:24;;;;;;;16.67;8.20;;;32.00;97.50;;;;;;4976125;28;20030;-81
2023/07/13 07:13:51;;;;;;;19.75;9.07;;;31.90;97.30;;;;;;4976042;28;20023;-79
2023/07/13 07:16:18;;;;;;;12.82;7.25;;;31.90;96.40;;;;;;4976779;28;20062;-83
2023/07/13 07:18:44;;;;;;;13.13;7.70;;;32.00;95.10;;;;;;4966421;28;20023;-82
2023/07/13 07:21:10;;;;;;;13.65;7.22;;;32.20;95.50;;;;;;4973522;28;20081;-83
2023/07/13 07:23:36;;;;;;;10.20;6.20;;;32.20;95.00;;;;;;4974919;28;20037;-82
2023/07/13 07:26:03;;;;;;;12.60;6.63;;;32.10;94.40;;;;;;4976057;28;20031;-82
2023/07/13 07:28:29;;;;;;;14.07;6.40;;;32.20;94.00;;;;;;4975377;28;20042;-82
2023/07/13 07:30:57;;;;;;;11.93;6.32;;;32.20;94.60;;;;;;4968113;28;20038;-80
2023/07/13 07:33:23;;;;;;;10.60;5.88;;;32.40;94.40;;;;;;4975088;28;20039;-81
2023/07/13 07:35:49;;;;;;;13.15;6.95;;;32.40;94.20;;;;;;4975980;28;20433;-80
2023/07/13 07:38:16;;;;;;;12.93;7.05;;;32.50;94.80;;;;;;4975220;28;20038;-75
2023/07/13 07:40:42;;;;;;;12.35;7.60;;;32.70;94.10;;;;;;4968570;28;20441;-76
2023/07/13 07:43:09;;;;;;;21.85;7.93;;;32.70;94.20;;;;;;4975008;28;20117;-75
2023/07/13 07:45:37;;;;;;;16.30;8.95;;;32.60;94.60;;;;;;4975348;28;20086;-81
2023/07/13 07:48:04;;;;;;;13.68;7.50;;;32.80;94.80;;;;;;4974552;28;20437;-75
2023/07/13 07:50:30;;;;;;;17.48;8.18;;;32.90;93.90;;;;;;4975605;28;20049;-82
2023/07/13 07:52:56;;;;;;;20.42;8.13;;;32.80;94.40;;;;;;4974747;28;20405;-73
2023/07/13 07:55:22;;;;;;;12.70;8.30;;;33.10;94.70;;;;;;4974306;28;20077;-81
2023/07/13 07:57:49;;;;;;;15.68;8.10;;;32.90;95.10;;;;;;4975618;28;20093;-81
2023/07/13 08:00:16;;;;;;;13.50;7.57;;;33.00;95.00;;;;;;4968950;28;20027;-81
2023/07/13 08:02:43;;;;;;;12.02;8.00;;;32.90;94.30;;;;;;4975766;28;20043;-79
2023/07/13 08:05:10;;;;;;;15.43;7.93;;;32.70;95.20;;;;;;4973142;28;20023;-74
2023/07/13 08:07:37;;;;;;;13.50;8.05;;;32.80;95.30;;;;;;4974891;28;20038;-83
2023/07/13 08:10:04;;;;;;;16.70;8.90;;;32.70;95.50;;;;;;4975584;28;20127;-83
2023/07/13 08:12:33;;;;;;;20.45;7.85;;;32.20;94.70;;;;;;4966554;28;20543;-82
2023/07/13 08:15:00;;;;;;;12.52;7.70;;;32.80;95.80;;;;;;4974849;28;20126;-82
2023/07/13 08:17:27;;;;;;;12.93;7.65;;;32.90;95.90;;;;;;4975044;28;20023;-85
2023/07/13 08:19:52;;;;;;;16.15;8.18;;;32.60;95.20;;;;;;4975996;28;20484;-85
2023/07/13 08:22:18;;;;;;;11.88;6.95;;;32.80;95.60;;;;;;4976065;28;20026;-86
2023/07/13 08:24:45;;;;;;;12.63;6.75;;;32.60;94.30;;;;;;4978608;28;20381;-81
2023/07/13 08:27:11;;;;;;;12.95;6.97;;;32.60;94.90;;;;;;4974904;28;20106;-85
2023/07/13 08:29:38;;;;;;;19.23;7.75;;;32.70;94.70;;;;;;4973931;28;20031;-82
2023/07/13 08:32:09;;;;;;;16.25;7.10;;;32.80;94.50;;;;;;4972677;28;20026;-82
2023/07/13 08:34:35;;;;;;;13.57;6.28;;;33.10;95.30;;;;;;4966113;28;20045;-84
2023/07/13 08:37:02;;;;;;;16.38;7.10;;;33.10;94.70;;;;;;4970939;28;20026;-75
2023/07/13 08:39:30;;;;;;;16.95;7.13;;;33.10;93.60;;;;;;4974545;28;20093;-82
2023/07/13 08:42:20;;;;;;;18.15;5.90;;;33.30;94.40;;;;;;4975058;28;20090;-83
2023/07/13 08:44:57;;;;;;;18.17;6.97;;;33.50;94.30;;;;;;4971072;28;20034;-84
2023/07/13 08:47:24;;;;;;;12.75;6.28;;;33.30;93.20;;;;;;4970577;28;20034;-84
2023/07/13 08:49:50;;;;;;;12.45;6.03;;;32.80;93.40;;;;;;4974091;28;20105;-76
2023/07/13 08:52:41;;;;;;;9.45;6.00;;;33.40;93.70;;;;;;4974498;28;20027;-83
2023/07/13 08:55:36;;;;;;;13.15;6.10;;;33.60;93.50;;;;;;4971701;28;20027;-75
2023/07/13 08:58:11;;;;;;;15.93;6.40;;;33.70;93.60;;;;;;4967675;28;20059;-83
2023/07/13 09:01:12;;;;;;;13.20;6.28;;;33.50;92.50;;;;;;4975744;28;20023;-82
2023/07/13 09:04:11;;;;;;;13.63;6.78;;;33.90;93.10;;;;;;4961707;28;20507;-79
2023/07/13 09:07:16;;;;;;;15.90;6.15;;;34.20;93.70;;;;;;4970922;28;20492;-76
2023/07/13 09:09:53;;;;;;;16.85;6.80;;;34.50;93.80;;;;;;4956395;28;20113;-75
2023/07/13 09:12:24;;;;;;;13.93;6.25;;;;;;;;;;4973268;28;20472;-79
2023/07/13 09:14:58;;;;;;;11.65;5.47;;;33.90;93.60;;;;;;4974140;28;20043;-75
2023/07/13 09:17:29;;;;;;;12.90;6.38;;;34.00;93.20;;;;;;4959028;28;20059;-81
2023/07/13 09:20:19;;;;;;;9.63;5.72;;;34.30;94.20;;;;;;4972827;28;20082;-75
2023/07/13 09:22:46;;;;;;;16.83;6.38;;;34.60;93.00;;;;;;4972464;28;20027;-75
2023/07/13 09:25:21;;;;;;;10.75;5.75;;;34.40;92.40;;;;;;4972498;28;20031;-81
2023/07/13 09:27:48;;;;;;;10.57;6.25;;;34.60;91.90;;;;;;4969665;28;20031;-82
2023/07/13 09:30:13;;;;;;;12.93;5.72;;;34.80;92.40;;;;;;4973901;28;20030;-80
2023/07/13 09:32:43;;;;;;;11.25;5.38;;;34.50;92.90;;;;;;4972614;28;20034;-82
2023/07/13 09:35:22;;;;;;;13.60;6.15;;;34.90;93.70;;;;;;4970411;28;20130;-83
2023/07/13 09:37:49;;;;;;;12.05;5.65;;;35.00;93.10;;;;;;4973946;28;20070;-74
2023/07/13 09:40:25;;;;;;;16.70;5.80;;;35.00;92.60;;;;;;4974003;28;20399;-84
2023/07/13 09:42:53;;;;;;;8.77;5.25;;;35.00;93.20;;;;;;4974838;28;20037;-74
2023/07/13 09:45:30;;;;;;;10.70;5.15;;;35.00;94.00;;;;;;4977578;28;20033;-73
2023/07/13 09:48:11;;;;;;;15.23;6.72;;;35.00;93.00;;;;;;4970116;28;20023;-73
2023/07/13 09:50:36;;;;;;;13.20;6.60;;;34.90;93.20;;;;;;4977999;28;20031;-77
2023/07/13 09:53:03;;;;;;;11.70;5.60;;;34.90;94.30;;;;;;4977423;28;20519;-74
2023/07/13 09:55:36;;;;;;;15.65;6.75;;;34.80;95.10;;;;;;4977439;28;20039;-74
2023/07/13 09:58:10;;;;;;;14.45;5.65;;;35.10;94.00;;;;;;4976817;28;20077;-80
2023/07/13 10:00:37;;;;;;;10.75;6.10;;;35.10;94.30;;;;;;4975105;28;20432;-82
2023/07/13 10:03:22;;;;;;;13.75;6.10;;;35.10;93.90;;;;;;4975869;28;20035;-81
2023/07/13 10:05:50;;;;;;;10.93;5.57;;;35.50;95.00;;;;;;4973224;28;20476;-80
2023/07/13 10:08:22;;;;;;;15.20;6.15;;;35.30;94.30;;;;;;4971160;28;20039;-74
2023/07/13 10:10:58;;;;;;;13.60;6.28;;;35.40;94.30;;;;;;4976409;28;20048;-74
2023/07/13 10:13:36;;;;;;;14.15;5.88;;;35.20;93.00;;;;;;4965225;28;20019;-74
2023/07/13 10:16:05;;;;;;;11.40;5.85;;;35.40;93.80;;;;;;4972391;28;20121;-83
2023/07/13 10:18:45;;;;;;;11.18;5.78;;;35.30;93.00;;;;;;4977669;28;20034;-83
2023/07/13 10:21:21;;;;;;;10.75;5.50;;;35.30;93.60;;;;;;4978281;28;20400;-75
2023/07/13 10:23:58;;;;;;;12.65;5.50;;;35.30;93.30;;;;;;4981873;28;20416;-84
2023/07/13 10:26:30;;;;;;;12.75;6.45;;;35.30;94.00;;;;;;4974969;28;20027;-81
2023/07/13 10:29:00;;;;;;;17.95;6.70;;;35.30;93.40;;;;;;4960524;28;20111;-81
2023/07/13 10:31:26;;;;;;;12.57;6.07;;;35.30;93.50;;;;;;4973215;28;20045;-76
2023/07/13 10:33:52;;;;;;;13.88;6.35;;;35.00;92.50;;;;;;4992775;28;20030;-84
2023/07/13 10:36:31;;;;;;;8.98;5.13;;;35.00;93.30;;;;;;4996445;28;20038;-74
2023/07/13 10:39:01;;;;;;;10.68;5.60;;;34.80;95.00;;;;;;4978372;28;20469;-80
2023/07/13 10:41:29;;;;;;;12.33;6.37;;;34.80;93.60;;;;;;4985587;28;20038;-81
2023/07/13 10:43:57;;;;;;;14.30;5.45;;;34.70;92.50;;;;;;4976760;28;20010;-82
2023/07/13 10:46:28;;;;;;;12.10;5.75;;;34.70;93.70;;;;;;4976914;28;20528;-83
2023/07/13 10:48:56;;;;;;;;;;;34.50;93.50;;;;;;4977071;28;20085;-82
2023/07/13 10:51:22;;;;;;;12.63;6.20;;;34.60;91.30;;;;;;4976976;28;19929;-84
2023/07/13 10:54:16;;;;;;;11.10;5.90;;;34.90;93.00;;;;;;4976621;28;20019;-81
2023/07/13 10:56:42;;;;;;;13.98;6.03;;;34.90;93.10;;;;;;4976573;28;20098;-75
2023/07/13 10:59:15;;;;;;;14.68;5.93;;;34.90;94.00;;;;;;4976676;28;20022;-82
2023/07/13 11:02:02;;;;;;;18.42;6.50;;;34.90;93.40;;;;;;4976748;28;20476;-74
2023/07/13 11:04:39;;;;;;;14.05;5.93;;;34.90;93.40;;;;;;4976841;28;20472;-76
2023/07/13 11:07:19;;;;;;;8.40;5.28;;;34.70;93.30;;;;;;4976355;28;20472;-74
2023/07/13 11:09:50;;;;;;;11.85;5.50;;;34.80;94.00;;;;;;4976344;28;20400;-76
2023/07/13 11:12:22;;;;;;;19.02;6.80;;;35.00;92.90;;;;;;4976701;28;20031;-80
2023/07/13 11:14:54;;;;;;;12.07;5.68;;;35.40;93.40;;;;;;4976121;28;20038;-80
2023/07/13 11:17:44;;;;;;;7.80;5.43;;;35.70;93.40;;;;;;4976423;28;20027;-81
2023/07/13 11:20:13;;;;;;;9.30;5.77;;;35.80;91.90;;;;;;4976435;28;20072;-80
2023/07/13 11:22:50;;;;;;;15.98;6.13;;;35.60;92.60;;;;;;4975056;28;20119;-80
2023/07/13 11:25:30;;;;;;;14.50;5.88;;;35.70;92.50;;;;;;4976163;28;20027;-78
2023/07/13 11:28:06;;;;;;;13.63;5.80;;;34.90;93.10;;;;;;4976159;28;20528;-80
2023/07/13 11:30:35;;;;;;;10.13;5.70;;;35.30;92.70;;;;;;4976480;28;20097;-80
2023/07/13 11:33:07;;;;;;;19.55;5.65;;;34.90;92.10;;;;;;4975077;28;20031;-79
2023/07/13 11:35:38;;;;;;;11.57;5.55;;;34.80;92.30;;;;;;4976042;28;20097;-74
2023/07/13 11:38:14;;;;;;;9.93;5.28;;;34.80;93.20;;;;;;4976364;28;20113;-83
2023/07/13 11:40:43;;;;;;;14.43;6.38;;;34.50;93.70;;;;;;4975667;28;20045;-74
2023/07/13 11:43:14;;;;;;;15.13;5.95;;;34.60;93.50;;;;;;4976028;28;20023;-84
2023/07/13 11:45:39;;;;;;;;;;;34.80;94.20;;;;;;4976108;28;20480;-83
2023/07/13 11:48:16;;;;;;;10.02;5.88;;;34.50;92.80;;;;;;4976075;28;19906;-74
2023/07/13 11:51:00;;;;;;;13.70;5.88;;;34.60;92.60;;;;;;4975642;28;20539;-84
2023/07/13 11:53:29;;;;;;;10.63;5.82;;;34.60;92.80;;;;;;4975644;28;20035;-81
2023/07/13 11:55:56;;;;;;;11.07;6.18;;;34.90;92.90;;;;;;4975388;28;20041;-80
2023/07/13 11:58:25;;;;;;;12.07;5.90;;;35.00;93.20;;;;;;4975617;28;20062;-78
2023/07/13 12:00:54;;;;;;;8.60;5.50;;;35.10;92.30;;;;;;4973800;28;20042;-77
2023/07/13 12:03:24;;;;;;;11.30;6.13;;;35.10;93.20;;;;;;4974225;28;20116;-74
2023/07/13 12:06:05;;;;;;;15.30;5.93;;;35.20;92.00;;;;;;4975270;28;20027;-78
2023/07/13 12:08:38;;;;;;;;;;;35.30;92.80;;;;;;4975092;28;20055;-77
2023/07/13 12:11:11;;;;;;;15.95;6.80;;;35.20;92.10;;;;;;4974714;28;19922;-78
2023/07/13 12:13:39;;;;;;;13.95;6.47;;;35.30;92.30;;;;;;4973105;28;20034;-79
2023/07/13 12:16:16;;;;;;;17.35;7.30;;;35.30;92.50;;;;;;4974926;28;20433;-80
2023/07/13 12:18:45;;;;;;;12.82;6.30;;;35.50;92.60;;;;;;4964917;28;20122;-77
2023/07/13 12:21:14;;;;;;;15.85;6.55;;;35.70;93.40;;;;;;4968699;28;20033;-76
2023/07/13 12:23:44;;;;;;;19.23;6.88;;;35.50;93.10;;;;;;4963890;28;20110;-77
2023/07/13 12:26:11;;;;;;;12.48;6.00;;;35.70;92.10;;;;;;4968886;28;20034;-78
2023/07/13 12:28:38;;;;;;;12.40;6.00;;;35.80;92.60;;;;;;4967870;28;20016;-77
2023/07/13 12:31:19;;;;;;;11.50;6.30;;;35.80;92.60;;;;;;4968208;28;20105;-79
2023/07/13 12:33:44;;;;;;;12.13;5.70;;;35.60;91.70;;;;;;4956529;28;20396;-79
2023/07/13 12:36:12;;;;;;;15.57;5.45;;;35.50;91.70;;;;;;4971903;28;20038;-75
2023/07/13 12:38:38;;;;;;;10.48;6.30;;;35.30;92.10;;;;;;4973792;28;20022;-79
2023/07/13 12:41:05;;;;;;;14.13;5.47;;;35.20;93.20;;;;;;4969740;28;20034;-77
2023/07/13 12:43:37;;;;;;;14.30;6.22;;;35.10;92.30;;;;;;4972771;28;20034;-78
2023/07/13 12:46:15;;;;;;;10.73;5.68;;;35.00;91.80;;;;;;4972143;28;20022;-78
2023/07/13 12:48:42;;;;;;;12.57;6.13;;;35.00;92.70;;;;;;4972238;28;20388;-78